GMTT Airport Information

Runway Information
Runway 07 Length 6562 ft width 98 ft
Elevation 0 ft Threshold 0 ft Heading 69
Runway 25 Length 6562 ft Width 98 ft
Elevation 0 ft Threshold 0 ft Heading 249
Runway 10 Length 11483 ft width 148 ft
Elevation 20 ft Threshold 0 ft Heading 96
Runway 28 Length 11483 ft Width 148 ft
Elevation 62 ft Threshold 1640 ft Heading 276
Airport Frequencies
Type APP Name TANGER APP Frequency 121.2 MHZ
Type TWR Name TANGER TWR Frequency 119.5 MHZ
Airport Navaids
Type VOR-DME Name Tanger Frequency 115900 KHZ
Airport Weather Information & NOTAM
ADDS - METARS form results

(0434 UTC 28 May 2022)
Data provider http://aviationweather.gov/metar/data/
 
METAR text: GMTT 280430Z AUTO 09009KT CAVOK 19/17 Q1012 NOSIG
Conditions at: GMTT (TANGIER/BOUKHALF, MA) observed 0430 UTC 28 May 2022
Temperature: 19.0°C (66°F)
Dewpoint: 17.0°C (63°F) [RH = 88%]
Pressure (altimeter): 29.88 inches Hg (1012.0 mb)
Winds: from the E (90 degrees) at 10 MPH (9 knots; 4.6 m/s)
Visibility: 6 or more miles (10+ km)
Ceiling: ceiling and visibility are OK
Clouds: unknown
Weather: no significant weather observed at this time

METAR text: GMTT 280400Z AUTO 07007KT CAVOK 19/17 Q1013 NOSIG
Conditions at: GMTT (TANGIER/BOUKHALF, MA) observed 0400 UTC 28 May 2022
Temperature: 19.0°C (66°F)
Dewpoint: 17.0°C (63°F) [RH = 88%]
Pressure (altimeter): 29.91 inches Hg (1013.0 mb)
Winds: from the ENE (70 degrees) at 8 MPH (7 knots; 3.6 m/s)
Visibility: 6 or more miles (10+ km)
Ceiling: ceiling and visibility are OK
Clouds: unknown
Weather: no significant weather observed at this time

Forecast for: GMTT (TANGIER/BOUKHALF, MA)
Text: TAF GMTT 271700Z 2718/2824 09016KT CAVOK
Forecast period: 1800 UTC 27 May 2022 to 0000 UTC 29 May 2022
Forecast type: FROM: standard forecast or significant change
Winds: from the E (90 degrees) at 18 MPH (16 knots; 8.2 m/s)
Visibility: 6 or more miles (10+ km)
Ceiling: unknown
Clouds: missing
Weather: NSW  (no significant weather)